Change Islands, Canada
Current Conditions -  °F | °C
As of 8:00 AM on Saturday 25 Oct 2014 (Local Time) from CYQX Reporting Station
Light Rain Light Rain  
Wind Chill: 33°   Ceiling: 300
Heat Index: 41°   Visibility: 1.7mi
Dew Point: 41°   Wind: 16mph
Humidity: 100%   Direction: 50°NE
Pressure: 29.57"   Gusts: 23mph
Location:  49.65°N, 54.38°W
Report Text: CYQX 251000Z 05014G20KT 1 3/4SM -RA BR BKN003 OVC007 05/05 A2957 RMK FG3SF4SF1 SLP019
Loading
Personal Weather Stations






























Interactive Weather Map
Tropical Storm Tracking
New forecast layout! Learn more

10-Day Weather Forecast

Advertisements
Track Severe Weather on mobile